createdAt,value
2017-08-11T00:00:19.944Z,8.03
2017-08-11T00:02:48.835Z,7.90
2017-08-11T00:05:17.718Z,7.97
2017-08-11T00:07:46.606Z,8.00
2017-08-11T00:10:15.486Z,8.97
2017-08-11T00:12:44.378Z,6.87
2017-08-11T00:15:13.257Z,6.53
2017-08-11T00:17:42.138Z,5.67
2017-08-11T00:20:10.440Z,7.33
2017-08-11T00:22:37.993Z,7.27
2017-08-11T00:25:05.505Z,7.77
2017-08-11T00:27:33.038Z,7.77
2017-08-11T00:30:02.079Z,6.80
2017-08-11T00:32:29.633Z,8.70
2017-08-11T00:34:58.671Z,8.90
2017-08-11T00:37:26.208Z,9.13
2017-08-11T00:39:54.861Z,7.90
2017-08-11T00:42:22.403Z,8.60
2017-08-11T00:44:49.927Z,8.80
2017-08-11T00:47:17.445Z,8.83
2017-08-11T00:49:46.119Z,8.77
2017-08-11T00:52:14.787Z,8.37
2017-08-11T00:54:42.322Z,9.20
2017-08-11T00:57:09.848Z,8.57
2017-08-11T00:59:37.412Z,8.63
2017-08-11T01:02:04.934Z,8.53
2017-08-11T01:04:32.474Z,7.90
2017-08-11T01:06:59.998Z,8.77
2017-08-11T01:09:27.541Z,9.00
2017-08-11T01:11:55.073Z,8.00
2017-08-11T01:14:22.628Z,8.87
2017-08-11T01:16:50.164Z,9.10
2017-08-11T01:19:17.715Z,9.40
2017-08-11T01:21:45.229Z,8.87
2017-08-11T01:24:14.282Z,8.60
2017-08-11T01:26:41.838Z,8.87
2017-08-11T01:29:09.389Z,9.93
2017-08-11T01:31:38.294Z,10.37
2017-08-11T01:34:05.831Z,10.30
2017-08-11T01:36:34.889Z,9.40
2017-08-11T01:39:02.432Z,11.97
2017-08-11T01:41:31.120Z,11.60
2017-08-11T01:43:58.651Z,11.53
2017-08-11T01:46:27.347Z,11.70
2017-08-11T01:48:56.009Z,10.60
2017-08-11T01:51:23.563Z,11.37
2017-08-11T01:53:52.428Z,13.00
2017-08-11T01:56:21.578Z,12.30
2017-08-11T01:58:49.120Z,12.90
2017-08-11T02:01:17.436Z,12.17
2017-08-11T02:03:44.968Z,14.30
2017-08-11T02:06:12.515Z,14.00
2017-08-11T02:08:40.830Z,14.80
2017-08-11T02:11:08.389Z,13.13
2017-08-11T02:13:35.914Z,15.53
2017-08-11T02:16:04.235Z,13.77
2017-08-11T02:18:31.772Z,14.40
2017-08-11T02:20:59.312Z,15.00
2017-08-11T02:23:27.602Z,14.67
2017-08-11T02:25:55.162Z,15.93
2017-08-11T02:28:22.688Z,16.67
2017-08-11T02:30:50.239Z,14.83
2017-08-11T02:33:18.900Z,15.93
2017-08-11T02:35:46.433Z,15.53
2017-08-11T02:38:14.741Z,14.13
2017-08-11T02:40:42.278Z,16.50
2017-08-11T02:43:09.848Z,13.87
2017-08-11T02:45:38.523Z,15.93
2017-08-11T02:48:06.063Z,15.70
2017-08-11T02:50:34.748Z,15.03
2017-08-11T02:53:03.440Z,15.93
2017-08-11T02:55:30.970Z,15.00
2017-08-11T02:57:59.655Z,17.60
2017-08-11T03:00:27.187Z,16.90
2017-08-11T03:02:55.865Z,17.40
2017-08-11T03:05:23.410Z,16.00
2017-08-11T03:07:52.081Z,15.10
2017-08-11T03:10:20.384Z,16.20
2017-08-11T03:12:47.930Z,14.43
2017-08-11T03:15:15.445Z,16.20
2017-08-11T03:17:43.010Z,16.97
2017-08-11T03:20:10.538Z,15.10
2017-08-11T03:22:38.082Z,18.17
2017-08-11T03:25:06.764Z,16.70
2017-08-11T03:27:34.348Z,15.90
2017-08-11T03:30:03.389Z,17.03
2017-08-11T03:32:30.921Z,16.60
2017-08-11T03:34:59.601Z,17.57
2017-08-11T03:37:27.130Z,16.50
2017-08-11T03:39:55.813Z,27.00
2017-08-11T03:42:24.488Z,26.60
2017-08-11T03:44:53.551Z,25.47
2017-08-11T03:47:21.077Z,20.83
2017-08-11T03:49:49.978Z,19.80
2017-08-11T03:52:18.646Z,17.83
2017-08-11T03:54:46.182Z,18.97
2017-08-11T03:57:15.218Z,17.10
2017-08-11T03:59:43.900Z,17.83
2017-08-11T04:02:12.565Z,20.03
2017-08-11T04:04:41.237Z,19.60
2017-08-11T04:07:08.767Z,18.80
2017-08-11T04:09:37.438Z,22.17
2017-08-11T04:12:04.973Z,20.10
2017-08-11T04:14:32.534Z,19.73
2017-08-11T04:17:00.074Z,22.80
2017-08-11T04:19:27.626Z,21.60
2017-08-11T04:21:56.663Z,22.00
2017-08-11T04:24:25.356Z,20.43
2017-08-11T04:26:54.400Z,19.97
2017-08-11T04:29:23.306Z,22.07
2017-08-11T04:31:50.838Z,19.20
2017-08-11T04:34:19.527Z,20.43
2017-08-11T04:36:47.827Z,19.10
2017-08-11T04:39:15.365Z,22.77
2017-08-11T04:41:44.411Z,21.97
2017-08-11T04:44:11.964Z,20.67
2017-08-11T04:46:40.635Z,21.43
2017-08-11T04:49:08.195Z,21.83
2017-08-11T04:51:37.231Z,18.53
2017-08-11T04:54:04.763Z,20.40
2017-08-11T04:56:32.309Z,18.97
2017-08-11T04:59:01.186Z,19.93
2017-08-11T05:01:29.503Z,18.43
2017-08-11T05:03:58.173Z,17.67
2017-08-11T05:06:25.712Z,18.37
2017-08-11T05:08:54.378Z,20.27
2017-08-11T05:11:23.452Z,18.97
2017-08-11T05:13:52.330Z,20.10
2017-08-11T05:16:21.343Z,20.47
2017-08-11T05:18:50.227Z,19.60
2017-08-11T05:21:19.128Z,19.93
2017-08-11T05:23:48.004Z,20.63
2017-08-11T05:26:16.685Z,21.00
2017-08-11T05:28:44.219Z,20.60
2017-08-11T05:31:13.277Z,21.23
2017-08-11T05:33:42.166Z,19.97
2017-08-11T05:36:11.070Z,20.17
2017-08-11T05:38:39.940Z,18.57
2017-08-11T05:41:07.491Z,20.20
2017-08-11T05:43:36.357Z,19.03
2017-08-11T05:46:05.022Z,20.37
2017-08-11T05:48:32.576Z,20.50
2017-08-11T05:51:01.237Z,20.20
2017-08-11T05:53:29.928Z,18.70
2017-08-11T05:55:58.967Z,21.63
2017-08-11T05:58:27.865Z,20.10
2017-08-11T06:00:55.390Z,21.23
2017-08-11T06:03:23.707Z,20.00
2017-08-11T06:05:52.378Z,19.77
2017-08-11T06:08:21.375Z,20.13
2017-08-11T06:10:48.912Z,20.40
2017-08-11T06:13:16.450Z,21.27
2017-08-11T06:15:45.331Z,24.00
2017-08-11T06:18:12.879Z,21.13
2017-08-11T06:20:40.420Z,21.43
2017-08-11T06:23:07.976Z,20.63
2017-08-11T06:25:36.864Z,22.10
2017-08-11T06:28:04.417Z,20.57
2017-08-11T06:30:31.955Z,22.43
2017-08-11T06:33:01.021Z,22.47
2017-08-11T06:35:28.559Z,24.10
2017-08-11T06:37:56.111Z,22.53
2017-08-11T06:40:23.632Z,22.80
2017-08-11T06:42:52.320Z,23.00
2017-08-11T06:45:21.432Z,22.43
2017-08-11T06:47:48.967Z,22.53
2017-08-11T06:50:16.523Z,23.20
2017-08-11T06:52:45.205Z,21.87
2017-08-11T06:55:12.775Z,22.50
2017-08-11T06:57:41.654Z,22.47
2017-08-11T07:00:10.022Z,26.50
2017-08-11T07:02:37.567Z,27.00
2017-08-11T07:05:06.245Z,31.20
2017-08-11T07:07:35.295Z,26.53
2017-08-11T07:10:02.858Z,23.93
2017-08-11T07:12:31.909Z,28.30
2017-08-11T07:14:59.473Z,28.13
2017-08-11T07:17:28.147Z,24.77
2017-08-11T07:19:57.037Z,31.10
2017-08-11T07:22:24.558Z,27.20
2017-08-11T07:24:52.122Z,25.13
2017-08-11T07:27:20.785Z,24.67
2017-08-11T07:29:49.109Z,26.27
2017-08-11T07:32:16.628Z,24.30
2017-08-11T07:34:45.304Z,30.20
2017-08-11T07:37:13.980Z,23.37
2017-08-11T07:39:41.535Z,25.03
2017-08-11T07:42:10.232Z,27.67
2017-08-11T07:44:38.897Z,29.30
2017-08-11T07:47:06.447Z,27.53
2017-08-11T07:49:35.122Z,30.70
2017-08-11T07:52:03.815Z,29.50
2017-08-11T07:54:31.375Z,25.03
2017-08-11T07:57:00.085Z,25.60
2017-08-11T07:59:29.135Z,31.37
2017-08-11T08:01:56.701Z,28.80
2017-08-11T08:04:25.574Z,32.00
2017-08-11T08:06:53.130Z,30.37
2017-08-11T08:09:21.827Z,34.47
2017-08-11T08:11:49.393Z,35.20
2017-08-11T08:14:16.932Z,35.00
2017-08-11T08:16:44.485Z,39.10
2017-08-11T08:19:12.005Z,31.60
2017-08-11T08:21:39.554Z,31.63
2017-08-11T08:24:07.095Z,33.60
2017-08-11T08:26:34.659Z,34.97
2017-08-11T08:29:02.191Z,31.30
2017-08-11T08:31:30.495Z,36.13
2017-08-11T08:33:58.042Z,34.10
2017-08-11T08:36:26.342Z,30.93
2017-08-11T08:38:55.241Z,28.57
2017-08-11T08:41:24.112Z,27.17
2017-08-11T08:43:53.001Z,23.83
2017-08-11T08:46:21.889Z,23.63
2017-08-11T08:48:50.801Z,28.33
2017-08-11T08:51:19.688Z,24.13
2017-08-11T08:53:48.588Z,26.90
2017-08-11T08:56:17.470Z,23.90
2017-08-11T08:58:46.379Z,24.87
2017-08-11T09:01:15.263Z,24.00
2017-08-11T09:03:44.162Z,23.77
2017-08-11T09:06:13.052Z,24.43
2017-08-11T09:08:41.947Z,24.07
2017-08-11T09:11:10.820Z,25.87
2017-08-11T09:13:39.724Z,23.40
2017-08-11T09:16:08.610Z,21.27
2017-08-11T09:18:37.502Z,22.70
2017-08-11T09:21:06.399Z,21.30
2017-08-11T09:23:35.284Z,23.00
2017-08-11T09:26:10.050Z,23.87
2017-08-11T09:28:44.904Z,24.63
2017-08-11T09:31:19.708Z,27.90
2017-08-11T09:33:54.489Z,29.70
2017-08-11T09:36:29.322Z,26.90
2017-08-11T09:38:56.876Z,24.67
2017-08-11T09:41:25.923Z,26.30
2017-08-11T09:43:54.822Z,23.57
2017-08-11T09:46:23.509Z,27.07
2017-08-11T09:48:52.406Z,22.80
2017-08-11T09:51:21.542Z,24.33
2017-08-11T09:53:50.519Z,27.60
2017-08-11T09:56:19.208Z,25.87
2017-08-11T09:58:48.098Z,27.00
2017-08-11T10:01:17.012Z,26.10
2017-08-11T10:03:45.894Z,24.30
2017-08-11T10:06:14.784Z,26.30
2017-08-11T10:08:43.830Z,28.40
2017-08-11T10:11:12.782Z,20.33
2017-08-11T10:13:41.660Z,24.87
2017-08-11T10:16:09.215Z,24.80
2017-08-11T10:18:36.743Z,18.90
2017-08-11T10:21:05.114Z,17.73
2017-08-11T10:23:32.649Z,17.30
2017-08-11T10:26:00.875Z,16.57
2017-08-11T10:28:29.555Z,15.57
2017-08-11T10:30:58.255Z,16.20
2017-08-11T10:33:25.796Z,14.80
2017-08-11T10:35:54.477Z,16.40
2017-08-11T10:38:22.025Z,14.70
2017-08-11T10:40:49.583Z,16.83
2017-08-11T10:43:17.115Z,16.73
2017-08-11T10:45:45.795Z,14.30
2017-08-11T10:48:13.322Z,17.57
2017-08-11T10:50:40.904Z,14.73
2017-08-11T10:53:09.197Z,14.00
2017-08-11T10:55:36.740Z,14.27
2017-08-11T10:58:04.292Z,12.70
2017-08-11T11:00:32.595Z,13.67
2017-08-11T11:03:00.147Z,13.40
2017-08-11T11:05:27.677Z,12.87
2017-08-11T11:07:55.242Z,11.67
2017-08-11T11:10:22.764Z,12.80
2017-08-11T11:12:50.321Z,12.30
2017-08-11T11:15:17.852Z,12.57
2017-08-11T11:17:45.389Z,12.20
2017-08-11T11:20:12.927Z,12.30
2017-08-11T11:22:40.474Z,13.03
2017-08-11T11:25:08.001Z,11.10
2017-08-11T11:27:35.557Z,10.80
2017-08-11T11:30:03.091Z,11.13
2017-08-11T11:32:30.649Z,12.30
2017-08-11T11:34:58.181Z,10.50
2017-08-11T11:37:25.746Z,10.87
2017-08-11T11:39:53.288Z,10.00
2017-08-11T11:42:20.827Z,10.47
2017-08-11T11:44:48.401Z,12.00
2017-08-11T11:47:15.939Z,9.70
2017-08-11T11:49:43.481Z,10.43
2017-08-11T11:52:11.768Z,12.50
2017-08-11T11:54:40.097Z,12.83
2017-08-11T11:57:07.638Z,12.40
2017-08-11T11:59:35.182Z,11.43
2017-08-11T12:02:04.075Z,12.33
2017-08-11T12:04:31.634Z,13.13
2017-08-11T12:06:59.157Z,12.73
2017-08-11T12:09:26.689Z,14.40
2017-08-11T12:11:54.214Z,12.80
2017-08-11T12:14:21.761Z,12.23
2017-08-11T12:16:49.294Z,12.80
2017-08-11T12:19:16.865Z,12.30
2017-08-11T12:21:45.161Z,13.47
2017-08-11T12:24:12.712Z,13.07
2017-08-11T12:26:40.239Z,13.60
2017-08-11T12:29:07.844Z,13.90
2017-08-11T12:31:35.396Z,13.83
2017-08-11T12:34:02.952Z,14.47
2017-08-11T12:36:30.476Z,13.27
2017-08-11T12:38:58.032Z,13.17
2017-08-11T12:41:25.567Z,13.83
2017-08-11T12:43:53.094Z,15.30
2017-08-11T12:46:20.655Z,15.47
2017-08-11T12:48:48.188Z,14.73
2017-08-11T12:51:15.730Z,14.30
2017-08-11T12:53:44.091Z,13.10
2017-08-11T12:56:11.650Z,13.80
2017-08-11T12:58:39.180Z,11.83
2017-08-11T13:01:07.502Z,12.70
2017-08-11T13:03:35.040Z,11.87
2017-08-11T13:06:02.600Z,12.37
2017-08-11T13:08:30.135Z,12.10
2017-08-11T13:10:58.451Z,12.20
2017-08-11T13:13:26.003Z,12.30
2017-08-11T13:15:53.555Z,12.20
2017-08-11T13:18:21.082Z,12.50
2017-08-11T13:20:49.504Z,11.43
2017-08-11T13:23:17.048Z,12.93
2017-08-11T13:25:44.589Z,10.60
2017-08-11T13:28:12.123Z,10.30
2017-08-11T13:30:39.661Z,12.20
2017-08-11T13:33:07.217Z,10.23
2017-08-11T13:35:34.754Z,8.80
2017-08-11T13:38:02.292Z,8.63
2017-08-11T13:40:29.862Z,8.30
2017-08-11T13:42:57.411Z,9.07
2017-08-11T13:45:25.727Z,11.10
2017-08-11T13:47:53.254Z,10.10
2017-08-11T13:50:21.593Z,9.90
2017-08-11T13:52:49.128Z,10.60
2017-08-11T13:55:16.675Z,11.73
2017-08-11T13:57:44.194Z,11.60
2017-08-11T14:00:12.495Z,11.17
2017-08-11T14:02:40.041Z,10.60
2017-08-11T14:05:08.348Z,11.37
2017-08-11T14:07:35.906Z,11.17
2017-08-11T14:10:03.430Z,11.23
2017-08-11T14:12:30.979Z,13.33
2017-08-11T14:14:58.519Z,10.90
2017-08-11T14:17:26.071Z,9.60
2017-08-11T14:19:54.370Z,12.40
2017-08-11T14:22:22.045Z,13.27
2017-08-11T14:24:49.592Z,12.33
2017-08-11T14:27:17.155Z,13.60
2017-08-11T14:29:44.684Z,13.27
2017-08-11T14:32:12.244Z,13.97
2017-08-11T14:34:39.769Z,12.67
2017-08-11T14:37:08.098Z,14.33
2017-08-11T14:39:35.674Z,13.80
2017-08-11T14:42:03.269Z,12.47
2017-08-11T14:44:31.567Z,12.57
2017-08-11T14:46:59.141Z,14.40
2017-08-11T14:49:26.678Z,12.57
2017-08-11T14:51:54.218Z,13.80
2017-08-11T14:54:21.778Z,13.77
2017-08-11T14:56:50.069Z,12.60
2017-08-11T14:59:18.379Z,14.67
2017-08-11T15:01:45.915Z,15.30
2017-08-11T15:04:13.472Z,16.20
2017-08-11T15:06:41.018Z,14.57
2017-08-11T15:09:08.570Z,16.57
2017-08-11T15:11:36.094Z,14.83
2017-08-11T15:14:05.153Z,15.63
2017-08-11T15:16:33.809Z,15.80
2017-08-11T15:19:02.128Z,16.63
2017-08-11T15:21:29.672Z,17.50
2017-08-11T15:23:58.572Z,18.50
2017-08-11T15:26:26.102Z,18.10
2017-08-11T15:28:53.660Z,15.80
2017-08-11T15:31:21.961Z,16.70
2017-08-11T15:33:49.514Z,16.17
2017-08-11T15:36:17.067Z,16.27
2017-08-11T15:38:44.627Z,15.23
2017-08-11T15:41:12.187Z,16.70
2017-08-11T15:43:40.511Z,16.80
2017-08-11T15:46:08.047Z,18.43
2017-08-11T15:48:35.603Z,17.63
2017-08-11T15:51:03.895Z,17.90
2017-08-11T15:53:31.445Z,19.67
2017-08-11T15:55:58.973Z,19.00
2017-08-11T15:58:26.538Z,20.80
2017-08-11T16:00:54.071Z,20.97
2017-08-11T16:03:21.629Z,21.33
2017-08-11T16:05:49.168Z,18.60
2017-08-11T16:08:16.733Z,20.53
2017-08-11T16:10:44.278Z,23.77
2017-08-11T16:13:11.817Z,23.90
2017-08-11T16:15:39.355Z,21.20
2017-08-11T16:18:06.887Z,21.90
2017-08-11T16:20:34.436Z,21.77
2017-08-11T16:23:01.983Z,21.10
2017-08-11T16:25:29.549Z,21.73
2017-08-11T16:27:57.088Z,21.33
2017-08-11T16:30:24.639Z,17.67
2017-08-11T16:32:52.933Z,21.90
2017-08-11T16:35:20.496Z,24.07
2017-08-11T16:37:48.022Z,20.63
2017-08-11T16:40:15.586Z,21.77
2017-08-11T16:42:43.123Z,23.07
2017-08-11T16:45:10.665Z,20.23
2017-08-11T16:47:38.203Z,23.77
2017-08-11T16:50:05.759Z,21.87
2017-08-11T16:52:33.296Z,23.50
2017-08-11T16:55:01.648Z,23.47
2017-08-11T16:57:29.191Z,23.27
2017-08-11T16:59:56.746Z,20.07
2017-08-11T17:02:24.291Z,21.03
2017-08-11T17:04:51.838Z,22.73
2017-08-11T17:07:19.387Z,21.83
2017-08-11T17:09:46.921Z,21.47
2017-08-11T17:12:14.457Z,21.30
2017-08-11T17:14:42.034Z,22.93
2017-08-11T17:17:09.591Z,23.13
2017-08-11T17:19:37.144Z,23.03
2017-08-11T17:22:04.694Z,23.10
2017-08-11T17:24:32.218Z,18.73
2017-08-11T17:26:59.767Z,22.93
2017-08-11T17:29:27.294Z,23.33
2017-08-11T17:31:54.861Z,19.80
2017-08-11T17:34:22.385Z,21.03
2017-08-11T17:36:49.938Z,19.60
2017-08-11T17:39:17.483Z,21.40
2017-08-11T17:41:45.030Z,21.07
2017-08-11T17:44:12.563Z,21.23
2017-08-11T17:46:40.883Z,19.87
2017-08-11T17:49:08.436Z,21.70
2017-08-11T17:51:35.967Z,19.17
2017-08-11T17:54:04.281Z,17.17
2017-08-11T17:56:31.806Z,18.20
2017-08-11T17:58:59.349Z,17.47
2017-08-11T18:01:26.873Z,22.17
2017-08-11T18:03:54.417Z,20.87
2017-08-11T18:06:21.951Z,18.70
2017-08-11T18:08:50.270Z,18.90
2017-08-11T18:11:17.813Z,18.70
2017-08-11T18:13:45.379Z,22.43
2017-08-11T18:16:12.952Z,20.10
2017-08-11T18:18:40.504Z,19.50
2017-08-11T18:21:08.044Z,22.20
2017-08-11T18:23:35.603Z,20.00
2017-08-11T18:26:03.156Z,21.13
2017-08-11T18:28:30.713Z,19.93
2017-08-11T18:30:58.263Z,21.67
2017-08-11T18:33:25.821Z,21.47
2017-08-11T18:35:53.371Z,23.20
2017-08-11T18:38:20.922Z,22.17
2017-08-11T18:40:48.465Z,22.03
2017-08-11T18:43:16.026Z,20.70
2017-08-11T18:45:43.564Z,22.13
2017-08-11T18:48:11.112Z,22.13
2017-08-11T18:50:38.659Z,20.40
2017-08-11T18:53:06.985Z,20.40
2017-08-11T18:55:34.540Z,20.70
2017-08-11T18:58:02.086Z,21.83
2017-08-11T19:00:29.643Z,23.97
2017-08-11T19:02:57.184Z,22.50
2017-08-11T19:05:24.738Z,21.87
2017-08-11T19:07:53.022Z,26.00
2017-08-11T19:10:21.343Z,22.03
2017-08-11T19:12:48.861Z,21.50
2017-08-11T19:15:16.416Z,21.13
2017-08-11T19:17:43.964Z,22.53
2017-08-11T19:20:12.277Z,20.60
2017-08-11T19:22:39.824Z,20.87
2017-08-11T19:25:07.370Z,20.07
2017-08-11T19:27:34.910Z,20.63
2017-08-11T19:30:02.458Z,22.30
2017-08-11T19:32:30.008Z,21.60
2017-08-11T19:34:57.567Z,22.70
2017-08-11T19:37:25.131Z,22.27
2017-08-11T19:39:52.660Z,20.07
2017-08-11T19:42:20.219Z,19.03
2017-08-11T19:44:47.759Z,23.10
2017-08-11T19:47:15.306Z,22.63
2017-08-11T19:49:42.843Z,19.97
2017-08-11T19:52:10.396Z,20.10
2017-08-11T19:54:37.913Z,19.90
2017-08-11T19:57:05.466Z,19.00
2017-08-11T19:59:33.006Z,20.77
2017-08-11T20:02:01.329Z,20.23
2017-08-11T20:04:28.859Z,20.93
2017-08-11T20:06:56.398Z,22.90
2017-08-11T20:09:23.922Z,21.87
2017-08-11T20:11:51.483Z,21.13
2017-08-11T20:14:19.015Z,22.90
2017-08-11T20:16:46.563Z,21.43
2017-08-11T20:19:14.109Z,21.20
2017-08-11T20:21:42.417Z,24.23
2017-08-11T20:24:09.961Z,23.27
2017-08-11T20:26:37.515Z,22.60
2017-08-11T20:29:05.829Z,21.20
2017-08-11T20:31:33.375Z,24.13
2017-08-11T20:34:00.917Z,25.13
2017-08-11T20:36:29.319Z,23.73
2017-08-11T20:38:56.918Z,22.80
2017-08-11T20:41:24.453Z,24.90
2017-08-11T20:43:52.008Z,24.17
2017-08-11T20:46:19.545Z,20.77
2017-08-11T20:48:47.111Z,22.43
2017-08-11T20:51:14.666Z,22.70
2017-08-11T20:53:42.219Z,22.23
2017-08-11T20:56:09.763Z,23.13
2017-08-11T20:58:37.316Z,25.83
2017-08-11T21:01:04.861Z,21.50
2017-08-11T21:03:32.422Z,21.50
2017-08-11T21:05:59.967Z,22.80
2017-08-11T21:08:27.528Z,21.17
2017-08-11T21:10:55.078Z,20.87
2017-08-11T21:13:22.628Z,21.13
2017-08-11T21:15:50.148Z,22.10
2017-08-11T21:18:18.473Z,21.83
2017-08-11T21:20:46.007Z,25.63
2017-08-11T21:23:13.543Z,23.63
2017-08-11T21:25:41.102Z,24.50
2017-08-11T21:28:08.650Z,22.40
2017-08-11T21:30:36.214Z,22.93
2017-08-11T21:33:03.752Z,24.37
2017-08-11T21:35:31.307Z,25.20
2017-08-11T21:37:58.874Z,23.40
2017-08-11T21:40:26.439Z,22.17
2017-08-11T21:42:53.998Z,21.50
2017-08-11T21:45:21.538Z,22.13
2017-08-11T21:47:49.073Z,23.27
2017-08-11T21:50:16.618Z,21.50
2017-08-11T21:52:44.153Z,22.07
2017-08-11T21:55:11.709Z,20.70
2017-08-11T21:57:40.018Z,22.43
2017-08-11T22:00:08.349Z,20.97
2017-08-11T22:02:35.895Z,22.30
2017-08-11T22:05:03.449Z,22.53
2017-08-11T22:07:30.987Z,23.20
2017-08-11T22:09:58.533Z,22.53
2017-08-11T22:12:26.061Z,24.70
2017-08-11T22:14:53.606Z,25.47
2017-08-11T22:17:21.151Z,24.37
2017-08-11T22:19:48.710Z,22.83
2017-08-11T22:22:16.234Z,23.80
2017-08-11T22:24:43.780Z,22.00
2017-08-11T22:27:11.324Z,21.87
2017-08-11T22:29:38.883Z,18.00
2017-08-11T22:32:06.410Z,18.53
2017-08-11T22:34:33.949Z,18.30
2017-08-11T22:37:01.516Z,17.50
2017-08-11T22:39:29.055Z,17.17
2017-08-11T22:41:56.597Z,18.27
2017-08-11T22:44:24.126Z,16.20
2017-08-11T22:46:51.669Z,13.87
2017-08-11T22:49:19.197Z,15.93
2017-08-11T22:51:46.752Z,14.63
2017-08-11T22:54:14.281Z,15.60
2017-08-11T22:56:41.834Z,13.47
2017-08-11T22:59:09.355Z,13.53
2017-08-11T23:01:36.920Z,13.47
2017-08-11T23:04:04.454Z,14.10
2017-08-11T23:06:32.770Z,14.20
2017-08-11T23:09:00.303Z,11.93
2017-08-11T23:11:27.837Z,11.50
2017-08-11T23:13:55.391Z,10.47
2017-08-11T23:16:22.950Z,11.77
2017-08-11T23:18:50.486Z,11.80
2017-08-11T23:21:18.035Z,10.90
2017-08-11T23:23:45.553Z,11.17
2017-08-11T23:26:13.100Z,9.47
2017-08-11T23:28:40.617Z,8.70
2017-08-11T23:31:08.171Z,8.87
2017-08-11T23:33:37.032Z,6.00
2017-08-11T23:36:05.917Z,7.23
2017-08-11T23:38:33.466Z,5.80
2017-08-11T23:41:01.783Z,5.07
2017-08-11T23:43:29.318Z,4.00
2017-08-11T23:45:57.622Z,3.33
2017-08-11T23:48:25.181Z,4.50
2017-08-11T23:50:52.716Z,3.13
2017-08-11T23:53:20.272Z,2.87
2017-08-11T23:55:48.553Z,2.50
2017-08-11T23:58:17.444Z,2.17
